sensor_id;sensor_type;location;lat;lon;timestamp;temperature;humidity
1524;DHT22;755;53.658;10.118;2023-04-09T00:04:17;6.10;99.90
1524;DHT22;755;53.658;10.118;2023-04-09T00:14:20;6.10;99.90
1524;DHT22;755;53.658;10.118;2023-04-09T00:24:22;6.10;99.90
1524;DHT22;755;53.658;10.118;2023-04-09T00:34:26;6.10;99.90
1524;DHT22;755;53.658;10.118;2023-04-09T00:44:28;6.00;99.90
1524;DHT22;755;53.658;10.118;2023-04-09T00:54:31;6.00;99.90
1524;DHT22;755;53.658;10.118;2023-04-09T01:04:34;6.00;99.90
1524;DHT22;755;53.658;10.118;2023-04-09T01:14:44;6.00;99.90
1524;DHT22;755;53.658;10.118;2023-04-09T01:24:59;5.90;99.90
1524;DHT22;755;53.658;10.118;2023-04-09T01:35:05;5.80;99.90
1524;DHT22;755;53.658;10.118;2023-04-09T01:45:09;5.80;99.90
1524;DHT22;755;53.658;10.118;2023-04-09T01:55:14;5.90;99.90
1524;DHT22;755;53.658;10.118;2023-04-09T02:05:18;6.00;99.90
1524;DHT22;755;53.658;10.118;2023-04-09T02:15:25;5.90;99.90
1524;DHT22;755;53.658;10.118;2023-04-09T02:25:30;5.90;99.90
1524;DHT22;755;53.658;10.118;2023-04-09T02:35:39;5.90;99.90
1524;DHT22;755;53.658;10.118;2023-04-09T02:45:42;5.90;99.90
1524;DHT22;755;53.658;10.118;2023-04-09T02:55:46;5.90;99.90
1524;DHT22;755;53.658;10.118;2023-04-09T03:05:54;5.80;99.90
1524;DHT22;755;53.658;10.118;2023-04-09T03:16:11;5.80;99.90
1524;DHT22;755;53.658;10.118;2023-04-09T03:26:19;5.80;99.90
1524;DHT22;755;53.658;10.118;2023-04-09T03:36:36;5.80;99.90
1524;DHT22;755;53.658;10.118;2023-04-09T03:57:38;5.90;99.90
1524;DHT22;755;53.658;10.118;2023-04-09T04:07:41;5.90;99.90
1524;DHT22;755;53.658;10.118;2023-04-09T04:17:49;5.80;99.90
1524;DHT22;755;53.658;10.118;2023-04-09T04:28:11;5.70;99.90
1524;DHT22;755;53.658;10.118;2023-04-09T04:38:19;5.80;99.90
1524;DHT22;755;53.658;10.118;2023-04-09T04:48:22;5.70;99.90
1524;DHT22;755;53.658;10.118;2023-04-09T04:58:26;5.80;99.90
1524;DHT22;755;53.658;10.118;2023-04-09T05:08:29;5.70;99.90
1524;DHT22;755;53.658;10.118;2023-04-09T05:18:50;5.80;99.90
1524;DHT22;755;53.658;10.118;2023-04-09T05:29:26;5.70;99.90
1524;DHT22;755;53.658;10.118;2023-04-09T05:39:34;5.80;99.90
1524;DHT22;755;53.658;10.118;2023-04-09T05:49:50;6.00;99.90
1524;DHT22;755;53.658;10.118;2023-04-09T05:59:59;5.90;99.90
1524;DHT22;755;53.658;10.118;2023-04-09T06:10:02;5.90;99.90
1524;DHT22;755;53.658;10.118;2023-04-09T06:20:08;6.00;99.90
1524;DHT22;755;53.658;10.118;2023-04-09T06:30:33;6.00;99.90
1524;DHT22;755;53.658;10.118;2023-04-09T06:40:39;6.00;99.90
1524;DHT22;755;53.658;10.118;2023-04-09T06:50:43;6.10;99.90
1524;DHT22;755;53.658;10.118;2023-04-09T07:00:50;6.20;99.90
1524;DHT22;755;53.658;10.118;2023-04-09T07:10:56;6.20;99.90
1524;DHT22;755;53.658;10.118;2023-04-09T07:21:27;6.30;99.90
1524;DHT22;755;53.658;10.118;2023-04-09T07:31:36;6.40;99.90
1524;DHT22;755;53.658;10.118;2023-04-09T07:41:40;6.60;99.90
1524;DHT22;755;53.658;10.118;2023-04-09T08:03:00;7.00;99.90
1524;DHT22;755;53.658;10.118;2023-04-09T08:13:03;7.10;99.90
1524;DHT22;755;53.658;10.118;2023-04-09T08:23:06;7.10;99.90
1524;DHT22;755;53.658;10.118;2023-04-09T08:33:08;7.40;99.90
1524;DHT22;755;53.658;10.118;2023-04-09T08:43:13;7.50;99.90
1524;DHT22;755;53.658;10.118;2023-04-09T08:53:16;7.70;99.90
1524;DHT22;755;53.658;10.118;2023-04-09T09:03:23;7.80;99.90
1524;DHT22;755;53.658;10.118;2023-04-09T09:13:26;7.80;99.90
1524;DHT22;755;53.658;10.118;2023-04-09T09:23:34;7.70;99.90
1524;DHT22;755;53.658;10.118;2023-04-09T09:33:37;7.90;99.90
1524;DHT22;755;53.658;10.118;2023-04-09T09:43:41;8.30;99.90
1524;DHT22;755;53.658;10.118;2023-04-09T09:53:43;8.00;99.90
1524;DHT22;755;53.658;10.118;2023-04-09T10:03:49;8.20;99.90
1524;DHT22;755;53.658;10.118;2023-04-09T10:13:56;8.30;99.90
1524;DHT22;755;53.658;10.118;2023-04-09T10:23:59;8.50;99.90
1524;DHT22;755;53.658;10.118;2023-04-09T10:34:05;8.60;99.90
1524;DHT22;755;53.658;10.118;2023-04-09T10:44:19;8.80;99.90
1524;DHT22;755;53.658;10.118;2023-04-09T10:54:41;8.70;99.90
1524;DHT22;755;53.658;10.118;2023-04-09T11:04:58;8.40;99.90
1524;DHT22;755;53.658;10.118;2023-04-09T11:15:04;8.40;99.90
1524;DHT22;755;53.658;10.118;2023-04-09T11:25:08;8.50;99.90
1524;DHT22;755;53.658;10.118;2023-04-09T11:35:11;8.70;99.90
1524;DHT22;755;53.658;10.118;2023-04-09T11:45:16;9.00;99.90
1524;DHT22;755;53.658;10.118;2023-04-09T11:55:23;8.80;99.90
1524;DHT22;755;53.658;10.118;2023-04-09T12:05:28;9.30;99.90
1524;DHT22;755;53.658;10.118;2023-04-09T12:15:32;9.60;99.90
1524;DHT22;755;53.658;10.118;2023-04-09T12:25:36;9.70;99.90
1524;DHT22;755;53.658;10.118;2023-04-09T12:35:39;9.60;99.90
1524;DHT22;755;53.658;10.118;2023-04-09T12:45:42;10.30;1.00
1524;DHT22;755;53.658;10.118;2023-04-09T12:55:44;10.30;99.90
1524;DHT22;755;53.658;10.118;2023-04-09T13:05:47;10.90;1.00
1524;DHT22;755;53.658;10.118;2023-04-09T13:15:49;11.40;99.90
1524;DHT22;755;53.658;10.118;2023-04-09T13:25:53;11.40;1.00
1524;DHT22;755;53.658;10.118;2023-04-09T13:35:55;11.70;1.00
1524;DHT22;755;53.658;10.118;2023-04-09T13:45:59;11.90;1.00
1524;DHT22;755;53.658;10.118;2023-04-09T13:56:01;12.10;1.00
1524;DHT22;755;53.658;10.118;2023-04-09T14:06:06;12.70;1.00
1524;DHT22;755;53.658;10.118;2023-04-09T14:16:08;12.70;95.90
1524;DHT22;755;53.658;10.118;2023-04-09T14:26:12;12.60;99.90
1524;DHT22;755;53.658;10.118;2023-04-09T14:36:15;12.00;99.90
1524;DHT22;755;53.658;10.118;2023-04-09T14:46:19;11.40;1.00
1524;DHT22;755;53.658;10.118;2023-04-09T14:56:21;11.60;1.00
1524;DHT22;755;53.658;10.118;2023-04-09T15:06:28;11.60;1.00
1524;DHT22;755;53.658;10.118;2023-04-09T15:16:32;11.90;99.90
1524;DHT22;755;53.658;10.118;2023-04-09T15:26:38;11.70;1.00
1524;DHT22;755;53.658;10.118;2023-04-09T15:36:40;11.70;99.90
1524;DHT22;755;53.658;10.118;2023-04-09T15:46:43;11.70;1.00
1524;DHT22;755;53.658;10.118;2023-04-09T15:56:45;11.50;64.10
1524;DHT22;755;53.658;10.118;2023-04-09T16:06:48;11.50;1.00
1524;DHT22;755;53.658;10.118;2023-04-09T16:16:50;11.50;99.90
1524;DHT22;755;53.658;10.118;2023-04-09T16:26:54;11.30;98.10
1524;DHT22;755;53.658;10.118;2023-04-09T16:36:56;11.20;99.90
1524;DHT22;755;53.658;10.118;2023-04-09T16:47:00;11.20;99.90
1524;DHT22;755;53.658;10.118;2023-04-09T16:57:02;11.10;99.90
1524;DHT22;755;53.658;10.118;2023-04-09T17:07:05;11.00;99.90
1524;DHT22;755;53.658;10.118;2023-04-09T17:17:07;10.80;1.00
1524;DHT22;755;53.658;10.118;2023-04-09T17:27:11;10.70;1.00
1524;DHT22;755;53.658;10.118;2023-04-09T17:37:13;10.40;99.90
1524;DHT22;755;53.658;10.118;2023-04-09T17:47:16;10.10;1.00
1524;DHT22;755;53.658;10.118;2023-04-09T17:57:18;9.90;1.00
1524;DHT22;755;53.658;10.118;2023-04-09T18:07:21;9.60;5.20
1524;DHT22;755;53.658;10.118;2023-04-09T18:17:24;9.50;99.90
1524;DHT22;755;53.658;10.118;2023-04-09T18:27:28;9.20;99.90
1524;DHT22;755;53.658;10.118;2023-04-09T18:37:30;9.00;99.90
1524;DHT22;755;53.658;10.118;2023-04-09T18:47:35;8.80;99.90
1524;DHT22;755;53.658;10.118;2023-04-09T18:57:37;8.60;99.90
1524;DHT22;755;53.658;10.118;2023-04-09T19:07:40;8.40;99.90
1524;DHT22;755;53.658;10.118;2023-04-09T19:17:43;8.40;99.90
1524;DHT22;755;53.658;10.118;2023-04-09T19:27:46;8.10;99.90
1524;DHT22;755;53.658;10.118;2023-04-09T19:37:48;7.80;99.90
1524;DHT22;755;53.658;10.118;2023-04-09T19:47:51;7.50;99.90
1524;DHT22;755;53.658;10.118;2023-04-09T19:57:53;7.50;99.90
1524;DHT22;755;53.658;10.118;2023-04-09T20:07:57;7.30;99.90
1524;DHT22;755;53.658;10.118;2023-04-09T20:17:59;6.90;99.90
1524;DHT22;755;53.658;10.118;2023-04-09T20:28:02;6.90;99.90
1524;DHT22;755;53.658;10.118;2023-04-09T20:38:04;6.80;99.90
1524;DHT22;755;53.658;10.118;2023-04-09T20:48:08;6.50;99.90
1524;DHT22;755;53.658;10.118;2023-04-09T20:58:10;6.60;99.90
1524;DHT22;755;53.658;10.118;2023-04-09T21:08:13;6.50;99.90
1524;DHT22;755;53.658;10.118;2023-04-09T21:18:16;6.50;99.90
1524;DHT22;755;53.658;10.118;2023-04-09T21:28:19;6.50;99.90
1524;DHT22;755;53.658;10.118;2023-04-09T21:38:21;6.60;99.90
1524;DHT22;755;53.658;10.118;2023-04-09T21:48:24;6.50;99.90
1524;DHT22;755;53.658;10.118;2023-04-09T21:58:29;6.50;99.90
1524;DHT22;755;53.658;10.118;2023-04-09T22:08:32;6.50;99.90
1524;DHT22;755;53.658;10.118;2023-04-09T22:18:34;6.30;99.90
1524;DHT22;755;53.658;10.118;2023-04-09T22:28:38;6.20;99.90
1524;DHT22;755;53.658;10.118;2023-04-09T22:38:44;6.10;99.90
1524;DHT22;755;53.658;10.118;2023-04-09T22:48:59;6.10;99.90
1524;DHT22;755;53.658;10.118;2023-04-09T22:59:05;5.90;99.90
1524;DHT22;755;53.658;10.118;2023-04-09T23:09:22;5.90;99.90
1524;DHT22;755;53.658;10.118;2023-04-09T23:19:27;5.70;99.90
1524;DHT22;755;53.658;10.118;2023-04-09T23:29:31;5.70;99.90
1524;DHT22;755;53.658;10.118;2023-04-09T23:39:33;5.70;99.90
1524;DHT22;755;53.658;10.118;2023-04-09T23:49:36;5.70;99.90
1524;DHT22;755;53.658;10.118;2023-04-09T23:59:38;5.60;99.90
